createdAt,value
2022-12-26T00:00:56.552Z,100947.80
2022-12-26T00:05:15.313Z,100941.61
2022-12-26T00:09:22.507Z,100944.02
2022-12-26T00:13:39.195Z,100948.16
2022-12-26T00:17:48.139Z,100952.11
2022-12-26T00:21:57.649Z,100945.63
2022-12-26T00:26:07.351Z,100931.58
2022-12-26T00:30:15.066Z,100934.48
2022-12-26T00:34:21.735Z,100931.91
2022-12-26T00:38:28.398Z,100935.52
2022-12-26T00:42:35.215Z,100939.45
2022-12-26T00:46:42.372Z,100934.31
2022-12-26T00:50:49.187Z,100929.16
2022-12-26T00:54:55.847Z,100931.20
2022-12-26T00:59:02.558Z,100933.56
2022-12-26T01:03:11.983Z,100931.48
2022-12-26T01:07:18.959Z,100915.41
2022-12-26T01:11:39.533Z,100916.77
2022-12-26T01:15:51.694Z,100903.06
2022-12-26T01:19:59.008Z,100885.26
2022-12-26T01:24:06.876Z,100881.46
2022-12-26T01:28:13.705Z,100892.41
2022-12-26T01:32:20.772Z,100879.61
2022-12-26T01:36:27.579Z,100871.08
2022-12-26T01:40:34.359Z,100866.79
2022-12-26T01:45:10.941Z,100858.40
2022-12-26T01:49:22.744Z,100865.73
2022-12-26T01:53:40.892Z,100864.36
2022-12-26T01:57:53.888Z,100860.09
2022-12-26T02:02:02.050Z,100854.80
2022-12-26T02:06:12.309Z,100845.36
2022-12-26T02:10:25.135Z,100841.42
2022-12-26T02:14:33.623Z,100840.52
2022-12-26T02:18:41.140Z,100841.54
2022-12-26T02:23:11.929Z,100830.29
2022-12-26T02:27:37.836Z,100821.73
2022-12-26T02:31:49.535Z,100811.79
2022-12-26T02:36:11.698Z,100805.30
2022-12-26T02:40:39.050Z,100798.98
2022-12-26T02:45:10.141Z,100786.16
2022-12-26T02:49:22.593Z,100779.17
2022-12-26T02:53:58.699Z,100769.41
2022-12-26T02:58:33.943Z,100765.48
2022-12-26T03:03:03.523Z,100771.48
2022-12-26T03:07:34.665Z,100762.59
2022-12-26T03:12:02.817Z,100756.30
2022-12-26T03:16:29.618Z,100735.59
2022-12-26T03:20:39.509Z,100742.41
2022-12-26T03:25:00.224Z,100737.61
2022-12-26T03:29:25.845Z,100724.65
2022-12-26T03:33:55.077Z,100725.02
2022-12-26T03:38:07.534Z,100703.53
2022-12-26T03:42:39.818Z,100682.16
2022-12-26T03:47:20.731Z,100676.21
2022-12-26T03:51:52.103Z,100654.16
2022-12-26T03:56:24.075Z,100642.73
2022-12-26T04:01:05.209Z,100644.98
2022-12-26T04:05:34.169Z,100635.38
2022-12-26T04:10:07.076Z,100629.70
2022-12-26T04:14:37.274Z,100631.89
2022-12-26T04:19:11.952Z,100623.52
2022-12-26T04:23:58.045Z,100605.77
2022-12-26T04:28:24.598Z,100582.48
2022-12-26T04:33:05.645Z,100574.24
2022-12-26T04:37:38.904Z,100569.09
2022-12-26T04:42:05.223Z,100555.13
2022-12-26T04:46:12.295Z,100552.23
2022-12-26T04:50:19.391Z,100550.68
2022-12-26T04:54:26.349Z,100544.83
2022-12-26T04:58:33.284Z,100526.38
2022-12-26T05:02:57.572Z,100519.77
2022-12-26T05:07:26.819Z,100503.74
2022-12-26T05:11:35.551Z,100500.11
2022-12-26T05:15:56.351Z,100490.86
2022-12-26T05:20:21.244Z,100497.34
2022-12-26T05:24:48.972Z,100479.27
2022-12-26T05:29:00.914Z,100469.90
2022-12-26T05:33:25.526Z,100454.65
2022-12-26T05:37:30.766Z,100435.65
2022-12-26T05:41:38.278Z,100431.87
2022-12-26T05:45:44.928Z,100444.70
2022-12-26T05:49:51.747Z,100460.77
2022-12-26T05:53:58.791Z,100480.80
2022-12-26T05:58:05.739Z,100473.30
2022-12-26T06:02:12.485Z,100461.08
2022-12-26T06:06:20.409Z,100448.02
2022-12-26T06:10:29.822Z,100452.96
2022-12-26T06:14:36.560Z,100451.05
2022-12-26T06:18:43.429Z,100449.17
2022-12-26T06:22:50.231Z,100449.01
2022-12-26T06:26:57.456Z,100449.59
2022-12-26T06:31:11.193Z,100427.46
2022-12-26T06:35:18.211Z,100392.08
2022-12-26T06:39:25.317Z,100376.89
2022-12-26T06:43:31.988Z,100370.27
2022-12-26T06:47:39.107Z,100376.47
2022-12-26T06:51:46.209Z,100358.50
2022-12-26T06:55:53.773Z,100370.43
2022-12-26T07:00:00.590Z,100377.09
2022-12-26T07:04:08.122Z,100385.67
2022-12-26T07:08:14.939Z,100369.24
2022-12-26T07:12:22.100Z,100341.16
2022-12-26T07:16:29.582Z,100333.91
2022-12-26T07:20:36.530Z,100340.23
2022-12-26T07:24:43.314Z,100344.48
2022-12-26T07:28:50.895Z,100329.56
2022-12-26T07:32:57.689Z,100318.71
2022-12-26T07:37:04.679Z,100320.02
2022-12-26T07:41:29.020Z,100322.89
2022-12-26T07:45:40.346Z,100356.87
2022-12-26T07:49:50.228Z,100379.20
2022-12-26T07:53:57.002Z,100353.00
2022-12-26T07:58:03.732Z,100329.47
2022-12-26T08:02:12.256Z,100316.52
2022-12-26T08:06:19.901Z,100310.04
2022-12-26T08:10:26.830Z,100308.63
2022-12-26T08:14:33.830Z,100314.51
2022-12-26T08:18:41.580Z,100318.77
2022-12-26T08:22:48.303Z,100318.55
2022-12-26T08:26:55.081Z,100306.55
2022-12-26T08:31:01.831Z,100300.56
2022-12-26T08:35:10.070Z,100281.66
2022-12-26T08:39:16.851Z,100280.24
2022-12-26T08:44:24.423Z,100289.48
2022-12-26T08:47:51.116Z,100290.04
2022-12-26T08:51:57.909Z,100277.10
2022-12-26T08:56:05.828Z,100269.70
2022-12-26T09:00:14.942Z,100260.19
2022-12-26T09:04:22.026Z,100254.20
2022-12-26T09:08:29.847Z,100257.89
2022-12-26T09:12:36.568Z,100238.35
2022-12-26T09:16:50.435Z,100240.57
2022-12-26T09:21:00.230Z,100239.52
2022-12-26T09:25:08.043Z,100239.70
2022-12-26T09:29:15.478Z,100235.08
2022-12-26T09:33:22.474Z,100228.66
2022-12-26T09:37:29.205Z,100226.23
2022-12-26T09:42:00.983Z,100213.78
2022-12-26T09:46:16.766Z,100206.13
2022-12-26T09:50:31.155Z,100208.64
2022-12-26T09:54:43.962Z,100204.70
2022-12-26T09:58:53.454Z,100204.95
2022-12-26T10:03:01.619Z,100196.29
2022-12-26T10:07:23.258Z,100208.49
2022-12-26T10:11:44.667Z,100201.09
2022-12-26T10:15:54.782Z,100192.48
2022-12-26T10:20:16.234Z,100193.52
2022-12-26T10:24:26.581Z,100186.20
2022-12-26T10:28:40.309Z,100190.75
2022-12-26T10:32:52.294Z,100185.73
2022-12-26T10:37:08.751Z,100167.86
2022-12-26T10:41:49.153Z,100169.29
2022-12-26T10:46:11.240Z,100158.33
2022-12-26T10:50:45.673Z,100155.36
2022-12-26T10:55:28.144Z,100140.63
2022-12-26T10:59:43.739Z,100133.52
2022-12-26T11:04:01.307Z,100133.45
2022-12-26T11:08:37.859Z,100127.36
2022-12-26T11:13:00.952Z,100126.16
2022-12-26T11:17:28.832Z,100129.52
2022-12-26T11:21:36.183Z,100129.77
2022-12-26T11:25:51.270Z,100128.12
2022-12-26T11:30:17.237Z,100124.33
2022-12-26T11:34:32.612Z,100128.16
2022-12-26T11:38:54.886Z,100118.78
2022-12-26T11:43:04.512Z,100114.61
2022-12-26T11:47:27.108Z,100114.56
2022-12-26T11:51:42.748Z,100110.33
2022-12-26T11:56:05.345Z,100103.70
2022-12-26T12:00:36.740Z,100099.77
2022-12-26T12:04:55.914Z,100093.94
2022-12-26T12:09:19.940Z,100090.29
2022-12-26T12:13:48.982Z,100086.20
2022-12-26T12:18:19.418Z,100091.11
2022-12-26T12:22:54.644Z,100096.16
2022-12-26T12:27:17.137Z,100093.21
2022-12-26T12:31:50.961Z,100089.84
2022-12-26T12:36:21.955Z,100096.73
2022-12-26T12:40:51.117Z,100106.67
2022-12-26T12:45:27.895Z,100104.62
2022-12-26T12:50:05.138Z,100110.10
2022-12-26T12:54:44.519Z,100109.82
2022-12-26T12:59:04.191Z,100118.26
2022-12-26T13:03:37.099Z,100125.25
2022-12-26T13:17:14.885Z,100126.27
2022-12-26T13:21:26.620Z,100125.86
2022-12-26T13:25:54.243Z,100123.30
2022-12-26T13:30:00.979Z,100124.53
2022-12-26T13:34:12.329Z,100125.52
2022-12-26T13:38:23.311Z,100122.20
2022-12-26T13:43:05.496Z,100128.29
2022-12-26T13:47:36.988Z,100128.46
2022-12-26T13:51:57.874Z,100119.20
2022-12-26T13:56:12.301Z,100125.08
2022-12-26T14:00:23.607Z,100122.90
2022-12-26T14:04:43.992Z,100118.91
2022-12-26T14:09:12.020Z,100116.67
2022-12-26T14:13:43.123Z,100109.32
2022-12-26T14:18:00.600Z,100116.82
2022-12-26T14:22:16.573Z,100133.33
2022-12-26T14:26:34.980Z,100136.73
2022-12-26T14:30:58.691Z,100132.06
2022-12-26T14:35:16.542Z,100127.63
2022-12-26T14:39:33.513Z,100121.23
2022-12-26T14:43:42.079Z,100117.23
2022-12-26T14:47:50.772Z,100122.15
2022-12-26T14:52:17.788Z,100121.20
2022-12-26T14:56:37.673Z,100121.49
2022-12-26T15:00:45.919Z,100126.36
2022-12-26T15:05:09.494Z,100122.13
2022-12-26T15:09:35.008Z,100117.36
2022-12-26T15:14:23.081Z,100120.81
2022-12-26T15:19:07.868Z,100128.32
2022-12-26T15:23:46.378Z,100133.85
2022-12-26T15:28:23.059Z,100122.95
2022-12-26T15:32:36.916Z,100116.63
2022-12-26T15:36:50.634Z,100113.01
2022-12-26T15:41:11.183Z,100109.81
2022-12-26T15:45:32.490Z,100112.21
2022-12-26T15:50:03.666Z,100123.63
2022-12-26T15:54:27.940Z,100123.14
2022-12-26T15:58:57.892Z,100123.61
2022-12-26T16:03:20.137Z,100121.15
2022-12-26T16:07:38.680Z,100115.73
2022-12-26T16:11:54.127Z,100117.54
2022-12-26T16:16:01.998Z,100120.93
2022-12-26T16:20:42.387Z,100123.76
2022-12-26T16:24:51.644Z,100122.98
2022-12-26T16:29:00.824Z,100116.73
2022-12-26T16:33:08.389Z,100110.29
2022-12-26T16:37:20.096Z,100106.86
2022-12-26T16:41:28.488Z,100117.12
2022-12-26T16:45:38.517Z,100123.74
2022-12-26T16:49:47.125Z,100120.20
2022-12-26T16:53:53.865Z,100115.25
2022-12-26T16:58:03.398Z,100108.64
2022-12-26T17:02:18.807Z,100100.49
2022-12-26T17:06:30.981Z,100090.13
2022-12-26T17:10:39.539Z,100095.25
2022-12-26T17:14:50.221Z,100097.69
2022-12-26T17:18:57.982Z,100097.07
2022-12-26T17:23:43.870Z,100095.83
2022-12-26T17:28:12.480Z,100095.42
2022-12-26T17:32:28.644Z,100095.26
2022-12-26T17:37:17.289Z,100086.50
2022-12-26T17:41:06.632Z,100085.48
2022-12-26T17:45:18.985Z,100092.85
2022-12-26T17:49:25.623Z,100093.77
2022-12-26T17:53:34.110Z,100099.53
2022-12-26T17:57:40.803Z,100109.83
2022-12-26T18:01:47.572Z,100115.51
2022-12-26T18:05:56.585Z,100117.96
2022-12-26T18:10:04.745Z,100121.77
2022-12-26T18:14:15.719Z,100118.69
2022-12-26T18:18:28.151Z,100120.41
2022-12-26T18:22:34.905Z,100118.88
2022-12-26T18:26:44.765Z,100119.23
2022-12-26T18:30:51.481Z,100125.81
2022-12-26T18:34:59.261Z,100125.55
2022-12-26T18:39:06.694Z,100126.45
2022-12-26T18:43:14.111Z,100123.73
2022-12-26T18:47:22.414Z,100129.32
2022-12-26T18:51:29.151Z,100128.45
2022-12-26T18:55:35.893Z,100130.08
2022-12-26T18:59:42.564Z,100133.98
2022-12-26T19:03:49.556Z,100131.01
2022-12-26T19:07:56.339Z,100131.50
2022-12-26T19:12:03.074Z,100129.17
2022-12-26T19:16:10.311Z,100137.93
2022-12-26T19:20:22.284Z,100134.75
2022-12-26T19:24:29.204Z,100137.35
2022-12-26T19:28:35.878Z,100143.23
2022-12-26T19:32:43.677Z,100151.80
2022-12-26T19:36:50.746Z,100156.72
2022-12-26T19:41:03.741Z,100164.90
2022-12-26T19:45:12.919Z,100168.52
2022-12-26T19:49:19.617Z,100187.55
2022-12-26T19:53:26.281Z,100185.69
2022-12-26T19:57:33.234Z,100186.94
2022-12-26T20:01:41.055Z,100185.71
2022-12-26T20:05:47.867Z,100184.59
2022-12-26T20:09:54.832Z,100187.89
2022-12-26T20:14:02.609Z,100187.90
2022-12-26T20:18:14.585Z,100187.33
2022-12-26T20:22:21.888Z,100195.45
2022-12-26T20:26:29.583Z,100210.08
2022-12-26T20:30:36.468Z,100216.65
2022-12-26T20:34:43.443Z,100213.48
2022-12-26T20:38:53.015Z,100214.38
2022-12-26T20:42:59.721Z,100224.15
2022-12-26T20:47:06.461Z,100225.73
2022-12-26T20:51:16.495Z,100227.46
2022-12-26T20:55:23.309Z,100230.29
2022-12-26T20:59:30.310Z,100236.33
2022-12-26T21:03:37.787Z,100242.25
2022-12-26T21:07:45.034Z,100242.78
2022-12-26T21:11:51.812Z,100251.77
2022-12-26T21:15:58.668Z,100253.64
2022-12-26T21:20:06.123Z,100253.70
2022-12-26T21:24:16.743Z,100250.98
2022-12-26T21:28:23.584Z,100248.08
2022-12-26T21:32:30.361Z,100249.26
2022-12-26T21:36:39.097Z,100247.77
2022-12-26T21:40:46.390Z,100247.11
2022-12-26T21:44:53.292Z,100243.34
2022-12-26T21:49:01.114Z,100237.27
2022-12-26T21:53:08.198Z,100228.83
2022-12-26T21:57:15.047Z,100239.13
2022-12-26T22:01:23.580Z,100245.83
2022-12-26T22:05:31.977Z,100249.86
2022-12-26T22:09:38.802Z,100241.02
2022-12-26T22:13:47.303Z,100236.16
2022-12-26T22:17:54.085Z,100235.06
2022-12-26T22:22:00.918Z,100232.82
2022-12-26T22:26:08.771Z,100234.73
2022-12-26T22:30:16.388Z,100232.46
2022-12-26T22:34:23.259Z,100224.02
2022-12-26T22:38:32.848Z,100212.20
2022-12-26T22:42:39.594Z,100217.12
2022-12-26T22:46:46.433Z,100228.89
2022-12-26T22:50:55.118Z,100240.29
2022-12-26T22:55:01.868Z,100239.05
2022-12-26T22:59:08.606Z,100237.51
2022-12-26T23:03:16.096Z,100250.00
2022-12-26T23:07:24.366Z,100248.46
2022-12-26T23:11:35.707Z,100246.88
2022-12-26T23:15:55.080Z,100242.98
2022-12-26T23:20:19.310Z,100240.31
2022-12-26T23:24:28.156Z,100242.73
2022-12-26T23:28:52.651Z,100240.83
2022-12-26T23:32:59.564Z,100230.19
2022-12-26T23:37:06.734Z,100229.09
2022-12-26T23:41:13.566Z,100222.98
2022-12-26T23:45:20.441Z,100220.36
2022-12-26T23:49:27.259Z,100222.42
2022-12-26T23:53:33.950Z,100221.55
2022-12-26T23:57:40.764Z,100222.29
